Time;durP1;ratioP1;P1;durP2;ratioP2;P2;SDS_P1;SDS_P2;PMS_P1;PMS_P2;Temp;Humidity;BMP_temperature;BMP_pressure;BME280_temperature;BME280_humidity;BME280_pressure;Samples;Min_cycle;Max_cycle;Signal;HPM_P1;HPM_P2
2023/03/08 00:01:30;;;;;;;8.02;3.53;;;-0.90;99.90;;;;;;5040089;28;20451;-67
2023/03/08 00:03:57;;;;;;;7.43;3.63;;;-1.00;99.90;;;;;;5040278;28;20033;-66
2023/03/08 00:06:24;;;;;;;6.70;3.75;;;-1.00;99.90;;;;;;5041298;28;20377;-67
2023/03/08 00:08:57;;;;;;;6.50;3.72;;;-0.80;99.90;;;;;;5037790;28;20045;-67
2023/03/08 00:11:23;;;;;;;6.25;3.72;;;-0.80;99.90;;;;;;5058587;28;20044;-67
2023/03/08 00:13:50;;;;;;;10.25;3.95;;;-0.80;99.90;;;;;;5037105;28;20054;-67
2023/03/08 00:16:16;;;;;;;8.25;3.80;;;-0.80;99.90;;;;;;5038497;28;20103;-67
2023/03/08 00:18:41;;;;;;;7.78;4.10;;;-1.00;99.90;;;;;;5041507;28;20439;-67
2023/03/08 00:21:11;;;;;;;7.63;4.38;;;-1.00;99.90;;;;;;5036961;28;20040;-67
2023/03/08 00:23:36;;;;;;;8.30;4.55;;;-0.70;99.90;;;;;;5040392;28;20052;-67
2023/03/08 00:26:02;;;;;;;8.75;4.70;;;-0.60;99.90;;;;;;5043940;28;20040;-67
2023/03/08 00:28:29;;;;;;;9.18;4.07;;;-0.90;99.90;;;;;;5037761;28;20445;-67
2023/03/08 00:30:57;;;;;;;10.02;4.10;;;-0.90;99.90;;;;;;5057880;28;20077;-67
2023/03/08 00:33:23;;;;;;;9.50;4.18;;;-0.70;99.90;;;;;;5038878;28;20136;-67
2023/03/08 00:36:04;;;;;;;9.77;4.90;;;-0.60;99.90;;;;;;5044187;28;20152;-67
2023/03/08 00:38:31;;;;;;;8.60;4.22;;;-0.80;99.90;;;;;;5036586;28;20041;-67
2023/03/08 00:40:57;;;;;;;12.45;4.60;;;-0.90;99.90;;;;;;5039479;28;20598;-67
2023/03/08 00:43:23;;;;;;;8.23;5.00;;;-0.60;99.90;;;;;;5038896;28;20043;-67
2023/03/08 00:45:49;;;;;;;9.23;5.03;;;-0.70;99.90;;;;;;5041684;28;20045;-67
2023/03/08 00:48:15;;;;;;;9.63;5.47;;;-0.80;99.90;;;;;;5042085;28;20044;-67
2023/03/08 00:50:41;;;;;;;13.45;6.35;;;-0.60;99.90;;;;;;5039029;28;20397;-66
2023/03/08 00:53:07;;;;;;;14.82;6.72;;;-0.90;99.90;;;;;;5038173;28;20048;-67
2023/03/08 00:55:33;;;;;;;13.13;6.40;;;-0.70;99.90;;;;;;5041930;28;20052;-67
2023/03/08 00:57:59;;;;;;;12.55;7.38;;;-0.70;99.90;;;;;;5039075;28;20100;-67
2023/03/08 01:00:24;;;;;;;13.82;7.53;;;-0.70;99.90;;;;;;5038621;28;20047;-67
2023/03/08 01:02:50;;;;;;;12.55;7.78;;;-0.90;99.90;;;;;;5035608;28;20087;-67
2023/03/08 01:05:16;;;;;;;17.08;8.75;;;-0.70;99.90;;;;;;5054639;28;21060;-67
2023/03/08 01:07:41;;;;;;;17.38;9.48;;;-1.00;99.90;;;;;;5037972;28;20038;-67
2023/03/08 01:10:07;;;;;;;18.58;10.82;;;-0.90;99.90;;;;;;5039608;28;20048;-67
2023/03/08 01:12:34;;;;;;;24.08;12.85;;;-1.00;99.90;;;;;;5040187;28;20048;-67
2023/03/08 01:15:00;;;;;;;24.05;14.18;;;-1.00;99.90;;;;;;5036273;28;20057;-67
2023/03/08 01:17:26;;;;;;;27.15;14.00;;;-1.00;99.90;;;;;;5040670;28;20321;-67
2023/03/08 01:19:51;;;;;;;22.75;13.57;;;-0.90;99.90;;;;;;5034164;28;20067;-67
2023/03/08 01:22:17;;;;;;;25.13;13.32;;;-0.80;99.90;;;;;;5035961;28;20033;-67
2023/03/08 01:24:47;;;;;;;24.83;13.27;;;-0.90;99.90;;;;;;5036653;28;20025;-67
2023/03/08 01:27:13;;;;;;;26.88;15.13;;;-1.00;99.90;;;;;;5042688;28;20059;-67
2023/03/08 01:29:39;;;;;;;27.13;15.15;;;-0.80;99.90;;;;;;5039844;28;20114;-67
2023/03/08 01:32:05;;;;;;;24.08;13.77;;;-1.00;99.90;;;;;;5053167;28;20053;-67
2023/03/08 01:34:30;;;;;;;28.38;15.45;;;-0.80;99.90;;;;;;5038979;28;20040;-67
2023/03/08 01:36:56;;;;;;;25.95;14.35;;;-0.80;99.90;;;;;;5043497;28;20076;-67
2023/03/08 01:39:21;;;;;;;27.92;13.40;;;-0.90;99.90;;;;;;5038021;28;20400;-67
2023/03/08 01:41:47;;;;;;;23.95;13.82;;;-0.90;99.90;;;;;;5040242;28;20126;-68
2023/03/08 01:44:18;;;;;;;23.63;14.25;;;-0.80;99.90;;;;;;5035964;28;20037;-67
2023/03/08 01:46:44;;;;;;;26.80;14.48;;;-1.00;99.90;;;;;;5037579;28;20049;-67
2023/03/08 01:49:27;;;;;;;24.95;14.15;;;-1.10;99.90;;;;;;5037668;28;20036;-67
2023/03/08 01:51:55;;;;;;;24.70;13.75;;;-1.00;99.90;;;;;;5036940;28;20049;-67
2023/03/08 01:54:30;;;;;;;22.02;13.73;;;-1.10;99.90;;;;;;5039536;28;20049;-67
2023/03/08 01:57:03;;;;;;;24.05;14.18;;;-1.20;99.90;;;;;;5037515;28;20060;-67
2023/03/08 01:59:31;;;;;;;24.55;14.15;;;-1.00;99.90;;;;;;5051064;28;20041;-67
2023/03/08 02:01:58;;;;;;;26.30;14.90;;;-1.20;99.90;;;;;;5038662;28;20060;-68
2023/03/08 02:04:25;;;;;;;27.48;15.52;;;-1.20;99.90;;;;;;5053773;28;20041;-67
2023/03/08 02:06:51;;;;;;;21.60;13.77;;;-1.10;99.90;;;;;;5044511;28;20051;-68
2023/03/08 02:09:18;;;;;;;20.23;12.75;;;-1.20;99.90;;;;;;5038329;28;20036;-68
2023/03/08 02:11:44;;;;;;;24.40;12.90;;;-1.50;99.90;;;;;;5037789;28;20045;-68
2023/03/08 02:14:10;;;;;;;27.65;13.27;;;-1.20;99.90;;;;;;5036633;28;20042;-68
2023/03/08 02:16:36;;;;;;;28.42;12.85;;;-1.30;99.90;;;;;;5034352;28;20588;-68
2023/03/08 02:19:07;;;;;;;22.13;12.55;;;-1.30;99.90;;;;;;5041819;28;20427;-68
2023/03/08 02:21:32;;;;;;;22.00;12.48;;;-1.50;99.90;;;;;;5035283;28;20065;-68
2023/03/08 02:24:05;;;;;;;20.73;13.25;;;-1.50;99.90;;;;;;5038551;28;20075;-68
2023/03/08 02:26:34;;;;;;;22.33;12.95;;;-1.30;99.90;;;;;;5035001;28;20047;-68
2023/03/08 02:28:59;;;;;;;20.17;12.18;;;-1.50;99.90;;;;;;5035244;28;20037;-68
2023/03/08 02:31:25;;;;;;;19.77;12.05;;;-1.50;99.90;;;;;;5033472;28;20121;-68
2023/03/08 02:33:51;;;;;;;17.15;11.07;;;-1.30;99.90;;;;;;5035669;28;20052;-68
2023/03/08 02:36:16;;;;;;;22.60;12.52;;;-1.30;99.90;;;;;;5037973;28;20051;-68
2023/03/08 02:38:42;;;;;;;22.17;13.07;;;-1.30;99.90;;;;;;5039645;28;20043;-68
2023/03/08 02:41:07;;;;;;;23.58;12.73;;;-1.30;99.90;;;;;;5031661;28;20073;-68
2023/03/08 02:43:34;;;;;;;16.92;10.82;;;-1.40;99.90;;;;;;5044032;28;20032;-68
2023/03/08 02:45:59;;;;;;;19.73;12.18;;;-1.40;99.90;;;;;;5038829;28;20483;-68
2023/03/08 02:48:25;;;;;;;27.13;12.80;;;-1.40;99.90;;;;;;5039781;28;20044;-68
2023/03/08 02:50:50;;;;;;;19.17;12.40;;;-1.30;99.90;;;;;;5037085;28;20071;-68
2023/03/08 02:53:16;;;;;;;21.85;12.15;;;-1.30;99.90;;;;;;5032361;28;20069;-68
2023/03/08 02:55:42;;;;;;;20.58;12.60;;;-1.20;99.90;;;;;;5039999;28;20040;-68
2023/03/08 02:58:09;;;;;;;21.02;11.18;;;-1.10;99.90;;;;;;5035639;28;20098;-68
2023/03/08 03:00:35;;;;;;;20.20;11.77;;;-1.20;99.90;;;;;;5030562;28;20071;-68
2023/03/08 03:03:01;;;;;;;20.65;12.13;;;-1.10;99.90;;;;;;5031731;28;20041;-68
2023/03/08 03:05:27;;;;;;;22.45;12.15;;;-1.20;99.90;;;;;;5046117;28;20044;-68
2023/03/08 03:07:54;;;;;;;21.40;12.65;;;-1.20;99.90;;;;;;5048187;28;20048;-68
2023/03/08 03:10:20;;;;;;;22.75;11.30;;;-1.10;99.90;;;;;;5032910;28;20087;-69
2023/03/08 03:12:45;;;;;;;19.20;11.35;;;-1.40;99.90;;;;;;5033750;28;20483;-69
2023/03/08 03:15:11;;;;;;;20.48;11.52;;;-1.20;99.90;;;;;;5035523;28;20045;-68
2023/03/08 03:17:37;;;;;;;18.20;10.57;;;-1.30;99.90;;;;;;5049723;28;20035;-68
2023/03/08 03:20:07;;;;;;;19.52;11.10;;;-1.50;99.90;;;;;;5033143;28;20136;-68
2023/03/08 03:22:34;;;;;;;18.38;10.40;;;-1.60;99.90;;;;;;5036841;28;20053;-68
2023/03/08 03:25:00;;;;;;;16.83;10.13;;;-1.30;99.90;;;;;;5029178;28;20129;-68
2023/03/08 03:27:25;;;;;;;17.20;10.10;;;-1.40;99.90;;;;;;5038495;28;20466;-68
2023/03/08 03:29:51;;;;;;;16.73;10.07;;;-1.60;99.90;;;;;;5038722;28;20043;-68
2023/03/08 03:32:17;;;;;;;15.63;10.20;;;-1.30;99.90;;;;;;5048343;28;20131;-68
2023/03/08 03:34:43;;;;;;;15.45;10.80;;;-1.30;99.90;;;;;;5033220;28;20147;-68
2023/03/08 03:37:09;;;;;;;18.05;11.05;;;-1.50;99.90;;;;;;5037012;28;20048;-68
2023/03/08 03:39:36;;;;;;;18.48;11.13;;;-1.30;99.90;;;;;;5035760;28;20037;-68
2023/03/08 03:42:02;;;;;;;19.90;10.65;;;-1.40;99.90;;;;;;5036405;28;20037;-69
2023/03/08 03:44:29;;;;;;;15.88;10.77;;;-1.30;99.90;;;;;;5033977;28;20033;-70
2023/03/08 03:46:55;;;;;;;15.07;8.30;;;-1.30;99.90;;;;;;5035246;28;20052;-71
2023/03/08 03:49:21;;;;;;;16.08;9.60;;;-1.50;99.90;;;;;;5031476;28;20095;-70
2023/03/08 03:51:46;;;;;;;15.43;9.70;;;-1.70;99.90;;;;;;5034635;28;20148;-70
2023/03/08 03:54:12;;;;;;;15.55;9.98;;;-1.80;99.90;;;;;;5037659;28;20037;-70
2023/03/08 03:56:38;;;;;;;17.25;9.95;;;-1.70;99.90;;;;;;5048323;28;20133;-70
2023/03/08 03:59:03;;;;;;;19.88;10.82;;;-1.80;99.90;;;;;;5033357;28;20115;-70
2023/03/08 04:01:30;;;;;;;17.90;10.48;;;-1.70;99.90;;;;;;5052129;28;20098;-70
2023/03/08 04:03:56;;;;;;;18.02;11.50;;;-1.60;99.90;;;;;;5048578;28;20369;-69
2023/03/08 04:06:26;;;;;;;21.70;12.20;;;-1.70;99.90;;;;;;5033475;28;20128;-69
2023/03/08 04:08:54;;;;;;;16.30;10.70;;;-1.50;99.90;;;;;;5037855;28;20481;-69
2023/03/08 04:11:22;;;;;;;17.70;11.30;;;-1.50;99.90;;;;;;5035791;28;20395;-69
2023/03/08 04:13:48;;;;;;;18.05;10.40;;;-1.60;99.90;;;;;;5059692;28;20041;-69
2023/03/08 04:16:14;;;;;;;16.55;10.38;;;-1.50;99.90;;;;;;5042151;28;20089;-69
2023/03/08 04:18:40;;;;;;;18.83;10.70;;;-1.50;99.90;;;;;;5038148;28;20191;-69
2023/03/08 04:21:06;;;;;;;14.95;10.48;;;-1.70;99.90;;;;;;5053049;28;20487;-69
2023/03/08 04:23:32;;;;;;;16.90;10.45;;;-1.50;99.90;;;;;;5044732;28;20541;-69
2023/03/08 04:25:58;;;;;;;14.80;9.65;;;-1.60;99.90;;;;;;5045141;28;20496;-69
2023/03/08 04:28:24;;;;;;;15.30;10.10;;;-1.60;99.90;;;;;;5045157;28;20733;-69
2023/03/08 04:30:49;;;;;;;17.98;10.82;;;-1.80;99.90;;;;;;5059978;28;20048;-69
2023/03/08 04:33:15;;;;;;;16.80;10.52;;;-1.70;99.90;;;;;;5035927;28;20041;-69
2023/03/08 04:35:41;;;;;;;15.63;10.73;;;-1.60;99.90;;;;;;5036206;28;20041;-69
2023/03/08 04:38:06;;;;;;;18.90;10.50;;;-1.80;99.90;;;;;;5036853;28;20038;-69
2023/03/08 04:40:32;;;;;;;17.38;10.30;;;-1.60;99.90;;;;;;5020438;28;20500;-70
2023/03/08 04:42:58;;;;;;;14.80;9.93;;;-1.70;99.90;;;;;;5050343;28;20033;-70
2023/03/08 04:45:23;;;;;;;15.60;9.98;;;-1.70;99.90;;;;;;5040138;28;20038;-70
2023/03/08 04:47:49;;;;;;;18.25;10.85;;;-1.60;99.90;;;;;;5040961;28;20064;-70
2023/03/08 04:50:15;;;;;;;13.85;9.43;;;-1.70;99.90;;;;;;5037819;28;20044;-70
2023/03/08 04:52:40;;;;;;;15.45;10.52;;;-1.80;99.90;;;;;;5038380;28;20548;-69
2023/03/08 04:55:06;;;;;;;14.88;10.15;;;-1.90;99.90;;;;;;5038738;28;20068;-69
2023/03/08 04:57:33;;;;;;;17.02;10.05;;;-1.90;99.90;;;;;;5035470;28;20436;-69
2023/03/08 04:59:59;;;;;;;20.58;10.50;;;-2.00;99.90;;;;;;5053043;28;20795;-70
2023/03/08 05:02:25;;;;;;;16.80;10.02;;;-1.80;99.90;;;;;;5051887;28;20120;-70
2023/03/08 05:04:50;;;;;;;15.32;9.30;;;-1.80;99.90;;;;;;5039592;28;20099;-70
2023/03/08 05:07:16;;;;;;;16.08;10.27;;;-2.00;99.90;;;;;;5048571;28;20044;-70
2023/03/08 05:09:41;;;;;;;14.55;9.10;;;-2.00;99.90;;;;;;5040156;28;20413;-70
2023/03/08 05:12:07;;;;;;;16.70;9.57;;;-1.90;99.90;;;;;;5042925;28;20037;-70
2023/03/08 05:14:33;;;;;;;13.70;9.80;;;-1.90;99.90;;;;;;5039581;28;20453;-70
2023/03/08 05:16:58;;;;;;;15.65;9.75;;;-1.90;99.90;;;;;;5036437;28;20164;-70
2023/03/08 05:19:24;;;;;;;17.20;9.88;;;-1.90;99.90;;;;;;5056784;28;20048;-70
2023/03/08 05:21:50;;;;;;;12.90;9.57;;;-2.00;99.90;;;;;;5038614;28;20051;-70
2023/03/08 05:24:15;;;;;;;20.20;11.00;;;-2.10;99.90;;;;;;5034193;28;20037;-70
2023/03/08 05:26:41;;;;;;;15.00;10.20;;;-2.10;99.90;;;;;;5036017;28;20037;-70
2023/03/08 05:29:06;;;;;;;15.68;9.88;;;-1.90;99.90;;;;;;5033947;28;20321;-70
2023/03/08 05:31:32;;;;;;;15.93;10.07;;;-2.20;99.90;;;;;;5038912;28;20132;-70
2023/03/08 05:33:58;;;;;;;16.10;10.68;;;-2.20;99.90;;;;;;5038223;28;20401;-70
2023/03/08 05:36:24;;;;;;;15.45;10.55;;;-1.90;99.90;;;;;;5052760;28;20503;-70
2023/03/08 05:38:53;;;;;;;17.95;10.73;;;-2.00;99.90;;;;;;5035680;28;20037;-70
2023/03/08 05:41:20;;;;;;;17.20;10.02;;;-1.90;99.90;;;;;;5041002;28;20045;-70
2023/03/08 05:43:46;;;;;;;19.13;9.95;;;-2.00;99.90;;;;;;5037169;28;20140;-70
2023/03/08 05:46:14;;;;;;;18.48;10.90;;;-1.90;99.90;;;;;;5037312;28;20749;-70
2023/03/08 05:48:39;;;;;;;21.77;12.25;;;-2.00;99.90;;;;;;5041637;28;20166;-70
2023/03/08 05:51:09;;;;;;;21.60;12.60;;;-2.00;99.90;;;;;;5041043;28;20120;-69
2023/03/08 05:53:34;;;;;;;16.77;10.90;;;-2.20;99.90;;;;;;5042321;28;20044;-70
2023/03/08 05:56:14;;;;;;;15.73;11.15;;;-2.00;99.90;;;;;;5048763;28;20033;-70
2023/03/08 05:58:40;;;;;;;16.63;10.60;;;-2.20;99.90;;;;;;5040052;28;20427;-70
2023/03/08 06:01:20;;;;;;;18.45;11.10;;;-2.20;99.90;;;;;;5041936;28;20041;-70
2023/03/08 06:03:47;;;;;;;15.70;10.35;;;-2.00;99.90;;;;;;5046680;28;20045;-70
2023/03/08 06:06:13;;;;;;;18.55;11.57;;;-2.20;99.90;;;;;;5049901;28;20045;-70
2023/03/08 06:08:39;;;;;;;16.63;10.98;;;-2.00;99.90;;;;;;5039900;28;20037;-71
2023/03/08 06:11:05;;;;;;;17.33;10.23;;;-2.20;99.90;;;;;;5034397;28;20375;-71
2023/03/08 06:13:31;;;;;;;15.65;10.40;;;-2.20;99.90;;;;;;5033996;28;20047;-70
2023/03/08 06:15:58;;;;;;;16.90;10.27;;;-2.20;99.90;;;;;;5034079;28;20520;-70
2023/03/08 06:18:24;;;;;;;14.02;10.27;;;-2.20;99.90;;;;;;5028786;28;20364;-70
2023/03/08 06:21:05;;;;;;;22.58;10.25;;;-2.00;99.90;;;;;;5031893;28;20056;-71
2023/03/08 06:23:32;;;;;;;18.13;10.88;;;-2.00;99.90;;;;;;5036442;28;20437;-70
2023/03/08 06:25:58;;;;;;;19.98;9.82;;;-2.30;99.90;;;;;;5036524;28;20041;-70
2023/03/08 06:28:25;;;;;;;16.38;10.35;;;-2.30;99.90;;;;;;5033395;28;20045;-70
2023/03/08 06:30:51;;;;;;;15.00;10.25;;;-2.30;99.90;;;;;;5033948;28;20046;-70
2023/03/08 06:33:17;;;;;;;16.70;10.98;;;-2.20;99.90;;;;;;5035347;28;20057;-70
2023/03/08 06:35:53;;;;;;;17.55;10.85;;;-2.20;99.90;;;;;;5033094;28;20036;-70
2023/03/08 06:38:19;;;;;;;16.10;10.43;;;-2.10;99.90;;;;;;5037962;28;20064;-70
2023/03/08 06:40:45;;;;;;;16.65;10.32;;;-2.20;99.90;;;;;;5050997;28;20065;-70
2023/03/08 06:43:10;;;;;;;14.27;9.57;;;-2.30;99.90;;;;;;5033051;28;20099;-70
2023/03/08 06:45:37;;;;;;;14.77;9.63;;;-2.20;99.90;;;;;;5030026;28;20037;-70
2023/03/08 06:48:03;;;;;;;13.85;9.65;;;-2.10;99.90;;;;;;5031063;28;20041;-71
2023/03/08 06:50:28;;;;;;;13.43;9.48;;;-2.10;99.90;;;;;;5032276;28;20072;-70
2023/03/08 06:52:54;;;;;;;18.80;10.55;;;-2.10;99.90;;;;;;5052589;28;20377;-70
2023/03/08 06:55:20;;;;;;;20.17;11.27;;;-2.10;99.90;;;;;;5042753;28;20044;-70
2023/03/08 06:57:45;;;;;;;21.05;11.05;;;-2.10;99.90;;;;;;5031322;28;20038;-70
2023/03/08 07:00:12;;;;;;;25.90;11.00;;;-2.10;99.90;;;;;;5032569;28;20419;-70
2023/03/08 07:02:38;;;;;;;23.20;11.43;;;-2.00;99.90;;;;;;5042710;28;20069;-70
2023/03/08 07:05:04;;;;;;;19.67;11.15;;;-2.10;99.90;;;;;;5033344;28;20607;-71
2023/03/08 07:07:29;;;;;;;16.60;11.23;;;-2.00;99.90;;;;;;5046775;28;20045;-71
2023/03/08 07:09:56;;;;;;;14.57;10.00;;;-1.80;99.90;;;;;;5029633;28;20428;-70
2023/03/08 07:12:23;;;;;;;14.95;9.77;;;-1.90;99.90;;;;;;5038935;28;20045;-70
2023/03/08 07:14:51;;;;;;;15.48;10.00;;;-1.80;99.90;;;;;;5029622;28;20454;-71
2023/03/08 07:17:16;;;;;;;15.18;10.30;;;-1.70;99.90;;;;;;5045287;28;20135;-71
2023/03/08 07:19:42;;;;;;;18.25;10.60;;;-1.50;99.90;;;;;;5052145;28;20041;-71
2023/03/08 07:22:08;;;;;;;14.93;11.23;;;-1.40;99.90;;;;;;5035892;28;20037;-71
2023/03/08 07:24:33;;;;;;;16.45;11.65;;;-1.30;99.90;;;;;;5056132;28;20037;-71
2023/03/08 07:26:59;;;;;;;16.33;11.15;;;-1.40;99.90;;;;;;5029989;28;20077;-71
2023/03/08 07:29:24;;;;;;;19.17;12.30;;;-1.40;99.90;;;;;;5033570;28;20049;-70
2023/03/08 07:31:50;;;;;;;19.63;11.98;;;-1.20;99.90;;;;;;5044699;28;20044;-71
2023/03/08 07:34:15;;;;;;;15.90;11.65;;;-1.20;99.90;;;;;;5039263;28;20098;-71
2023/03/08 07:36:41;;;;;;;20.63;13.30;;;-0.90;99.90;;;;;;5045953;28;20045;-71
2023/03/08 07:39:07;;;;;;;21.83;14.68;;;-1.00;99.90;;;;;;5032180;28;20047;-70
2023/03/08 07:41:33;;;;;;;21.88;13.38;;;-0.70;99.90;;;;;;5040142;28;20036;-71
2023/03/08 07:44:01;;;;;;;26.30;15.30;;;-0.60;99.90;;;;;;5046871;28;20036;-70
2023/03/08 07:46:27;;;;;;;29.92;16.67;;;-0.60;99.90;;;;;;5044662;28;20043;-70
2023/03/08 07:48:52;;;;;;;27.05;16.05;;;-0.50;99.90;;;;;;5034188;28;20041;-70
2023/03/08 07:51:18;;;;;;;33.00;18.02;;;-0.50;99.90;;;;;;5032503;28;20045;-71
2023/03/08 07:53:44;;;;;;;35.40;17.85;;;-0.60;99.90;;;;;;5047546;28;20044;-70
2023/03/08 07:56:10;;;;;;;34.00;17.85;;;-0.60;99.90;;;;;;5038860;28;20037;-70
2023/03/08 07:58:37;;;;;;;29.98;16.98;;;-0.30;99.90;;;;;;5045583;28;20124;-71
2023/03/08 08:01:10;;;;;;;38.35;17.67;;;-0.30;99.90;;;;;;5057414;28;20039;-71
2023/03/08 08:03:37;;;;;;;37.53;17.55;;;-0.50;99.90;;;;;;5033511;28;20445;-71
2023/03/08 08:06:04;;;;;;;49.20;19.13;;;-0.30;99.90;;;;;;5038674;28;20033;-71
2023/03/08 08:08:29;;;;;;;38.15;17.77;;;-0.50;99.90;;;;;;5046317;28;20135;-71
2023/03/08 08:10:55;;;;;;;42.92;18.73;;;-0.30;99.90;;;;;;5050494;28;20561;-71
2023/03/08 08:13:21;;;;;;;35.78;18.10;;;-0.50;99.90;;;;;;5038297;28;20487;-71
2023/03/08 08:15:46;;;;;;;33.10;17.48;;;-0.30;99.90;;;;;;5045541;28;20040;-71
2023/03/08 08:18:12;;;;;;;28.83;16.30;;;-0.30;99.90;;;;;;5039018;28;20040;-71
2023/03/08 08:20:38;;;;;;;27.38;15.70;;;-0.30;99.90;;;;;;5051183;28;20096;-71
2023/03/08 08:23:06;;;;;;;26.10;15.55;;;-0.40;99.90;;;;;;5038736;28;20128;-72
2023/03/08 08:25:32;;;;;;;26.65;14.43;;;-0.20;99.90;;;;;;5051459;28;20036;-71
2023/03/08 08:27:58;;;;;;;24.25;14.77;;;-0.20;99.90;;;;;;5036364;28;20040;-71
2023/03/08 08:30:23;;;;;;;25.08;15.13;;;-0.30;99.90;;;;;;5034622;28;20134;-71
2023/03/08 08:32:49;;;;;;;26.60;14.80;;;-0.20;99.90;;;;;;5035124;28;20068;-71
2023/03/08 08:35:14;;;;;;;29.38;15.18;;;-0.10;99.90;;;;;;5044747;28;20092;-71
2023/03/08 08:37:40;;;;;;;29.27;16.38;;;0.00;99.90;;;;;;5033685;28;20075;-72
2023/03/08 08:40:06;;;;;;;31.25;17.30;;;0.00;99.90;;;;;;5048302;28;20404;-72
2023/03/08 08:42:32;;;;;;;30.83;17.30;;;0.00;99.90;;;;;;5042234;28;20106;-72
2023/03/08 08:44:58;;;;;;;37.10;17.52;;;-0.20;99.90;;;;;;5040981;28;20037;-72
2023/03/08 08:47:23;;;;;;;27.58;16.52;;;0.00;99.90;;;;;;5041593;28;20048;-71
2023/03/08 08:49:50;;;;;;;27.33;16.58;;;-0.10;99.90;;;;;;5037989;28;20041;-72
2023/03/08 08:52:15;;;;;;;28.50;16.40;;;0.00;99.90;;;;;;5043897;28;20073;-72
2023/03/08 08:54:41;;;;;;;29.13;16.98;;;0.00;99.90;;;;;;5039932;28;20069;-73
2023/03/08 08:57:07;;;;;;;33.60;18.08;;;0.10;99.90;;;;;;5043836;28;20051;-73
2023/03/08 08:59:32;;;;;;;28.98;16.02;;;0.20;99.90;;;;;;5035203;28;20370;-72
2023/03/08 09:01:58;;;;;;;26.02;15.32;;;0.30;99.90;;;;;;5041007;28;20392;-72
2023/03/08 09:04:24;;;;;;;25.70;16.30;;;0.50;99.90;;;;;;5039294;28;20037;-72
2023/03/08 09:06:50;;;;;;;29.20;16.10;;;0.50;99.90;;;;;;5044572;28;20041;-70
2023/03/08 09:09:17;;;;;;;28.85;17.40;;;0.30;99.90;;;;;;5034861;28;20048;-71
2023/03/08 09:11:42;;;;;;;28.38;16.55;;;0.50;99.90;;;;;;5031822;28;20029;-72
2023/03/08 09:14:08;;;;;;;29.95;18.02;;;0.40;99.90;;;;;;5035270;28;20079;-71
2023/03/08 09:16:34;;;;;;;28.35;16.58;;;0.40;99.90;;;;;;5032134;28;20033;-71
2023/03/08 09:19:02;;;;;;;31.20;18.27;;;0.30;99.90;;;;;;5036741;28;20049;-71
2023/03/08 09:21:28;;;;;;;29.27;17.00;;;0.50;99.90;;;;;;5045760;28;20045;-71
2023/03/08 09:23:57;;;;;;;27.45;16.65;;;0.50;99.90;;;;;;5038461;28;20263;-72
2023/03/08 09:26:23;;;;;;;30.75;18.08;;;0.40;99.90;;;;;;5046369;28;20040;-71
2023/03/08 09:28:48;;;;;;;32.47;18.65;;;0.60;99.90;;;;;;5039303;28;20048;-71
2023/03/08 09:31:15;;;;;;;29.77;17.63;;;0.50;99.90;;;;;;5049650;28;20045;-71
2023/03/08 09:33:43;;;;;;;30.80;17.90;;;0.60;99.90;;;;;;5033183;28;20083;-71
2023/03/08 09:36:09;;;;;;;29.63;18.02;;;0.50;99.90;;;;;;5043623;28;20132;-70
2023/03/08 09:38:35;;;;;;;31.25;18.55;;;0.60;99.90;;;;;;5042688;28;20143;-70
2023/03/08 09:41:20;;;;;;;34.53;18.60;;;0.70;99.90;;;;;;5039289;28;20095;-70
2023/03/08 09:43:58;;;;;;;33.15;18.73;;;0.90;99.90;;;;;;5049769;28;20084;-70
2023/03/08 09:46:31;;;;;;;32.85;18.98;;;0.90;99.90;;;;;;5057627;28;20496;-70
2023/03/08 09:49:00;;;;;;;33.25;19.17;;;0.90;99.90;;;;;;5049522;28;20049;-69
2023/03/08 09:51:32;;;;;;;33.10;19.15;;;1.00;99.90;;;;;;5042711;28;20128;-69
2023/03/08 09:54:03;;;;;;;31.90;18.92;;;1.10;99.90;;;;;;5042703;28;20106;-70
2023/03/08 09:56:37;;;;;;;35.00;18.38;;;1.10;99.90;;;;;;5046344;28;20095;-69
2023/03/08 09:59:13;;;;;;;33.00;19.10;;;1.20;99.90;;;;;;5034991;28;20053;-69
2023/03/08 10:02:03;;;;;;;31.45;18.77;;;1.20;99.90;;;;;;5059699;28;20044;-69
2023/03/08 10:04:52;;;;;;;32.25;18.95;;;1.40;99.90;;;;;;5033537;28;20411;-69
2023/03/08 10:07:48;;;;;;;34.03;19.00;;;1.50;99.90;;;;;;5053603;28;20037;-69
2023/03/08 10:10:40;;;;;;;30.70;18.27;;;1.60;99.90;;;;;;5041201;28;20033;-69
2023/03/08 10:13:25;;;;;;;34.05;19.20;;;1.70;99.90;;;;;;5053846;28;20068;-68
2023/03/08 10:15:56;;;;;;;36.60;20.05;;;1.80;99.90;;;;;;5053875;28;20151;-69
2023/03/08 10:18:41;;;;;;;31.92;19.23;;;1.90;99.90;;;;;;5039653;28;20045;-68
2023/03/08 10:21:11;;;;;;;28.20;17.63;;;2.10;99.90;;;;;;5044517;28;20122;-68
2023/03/08 10:23:40;;;;;;;29.67;17.25;;;2.10;99.90;;;;;;5042949;28;20044;-67
2023/03/08 10:26:10;;;;;;;28.63;17.33;;;2.20;99.90;;;;;;5044118;28;20041;-67
2023/03/08 10:28:36;;;;;;;30.08;16.38;;;2.30;99.90;;;;;;5046966;28;20041;-67
2023/03/08 10:31:15;;;;;;;27.73;15.90;;;2.50;99.90;;;;;;5044542;28;20044;-67
2023/03/08 10:33:41;;;;;;;29.05;16.45;;;2.60;99.90;;;;;;5032993;28;20439;-67
2023/03/08 10:36:08;;;;;;;29.27;16.40;;;2.70;99.90;;;;;;5041431;28;20049;-68
2023/03/08 10:38:36;;;;;;;28.58;16.75;;;2.80;99.90;;;;;;5054265;28;20049;-66
2023/03/08 10:41:15;;;;;;;26.83;15.32;;;2.80;99.90;;;;;;5040349;28;20037;-67
2023/03/08 10:43:45;;;;;;;28.67;16.55;;;2.80;99.90;;;;;;5036615;28;20076;-66
2023/03/08 10:46:17;;;;;;;27.33;16.00;;;2.80;99.90;;;;;;5038974;28;20056;-66
2023/03/08 10:48:44;;;;;;;31.97;16.73;;;2.80;99.90;;;;;;5047110;28;20137;-67
2023/03/08 10:51:23;;;;;;;26.77;15.50;;;2.90;99.90;;;;;;5038028;28;20328;-66
2023/03/08 10:53:57;;;;;;;27.42;15.90;;;2.90;99.90;;;;;;5035233;28;20091;-65
2023/03/08 10:56:50;;;;;;;28.45;16.38;;;2.90;99.90;;;;;;5040785;28;20053;-66
2023/03/08 10:59:34;;;;;;;28.42;16.10;;;3.10;99.90;;;;;;5052162;28;20037;-66
2023/03/08 11:02:12;;;;;;;25.90;14.63;;;3.00;99.90;;;;;;5035223;28;20037;-66
2023/03/08 11:04:37;;;;;;;23.95;12.98;;;3.10;99.90;;;;;;5057149;28;20033;-67
2023/03/08 11:07:25;;;;;;;25.60;13.73;;;3.20;99.90;;;;;;5043104;28;20037;-66
2023/03/08 11:09:51;;;;;;;22.92;13.23;;;3.30;99.90;;;;;;5055264;28;20496;-66
2023/03/08 11:12:23;;;;;;;19.45;11.32;;;3.30;99.90;;;;;;5035269;28;20554;-66
2023/03/08 11:14:49;;;;;;;19.35;11.48;;;3.40;99.90;;;;;;5043594;28;20049;-66
2023/03/08 11:17:30;;;;;;;20.80;10.95;;;3.40;99.90;;;;;;5043482;28;20155;-65
2023/03/08 11:20:22;;;;;;;20.20;11.80;;;3.40;99.90;;;;;;5038309;28;20484;-66
2023/03/08 11:23:03;;;;;;;21.75;11.55;;;3.40;99.90;;;;;;5046882;28;20045;-67
2023/03/08 11:25:56;;;;;;;20.17;11.27;;;3.50;99.90;;;;;;5046314;28;20045;-66
2023/03/08 11:28:38;;;;;;;19.65;11.18;;;3.40;99.90;;;;;;5038793;28;20472;-66
2023/03/08 11:31:31;;;;;;;20.90;11.73;;;3.40;99.90;;;;;;5038344;28;20077;-66
2023/03/08 11:34:23;;;;;;;19.75;11.20;;;3.40;99.90;;;;;;5042831;28;20530;-65
2023/03/08 11:37:05;;;;;;;21.40;11.32;;;3.50;99.90;;;;;;5039205;28;20041;-66
2023/03/08 11:39:37;;;;;;;21.40;11.02;;;3.60;99.90;;;;;;5042433;28;20041;-66
2023/03/08 11:42:27;;;;;;;21.70;11.98;;;3.60;99.90;;;;;;5039289;28;20040;-66
2023/03/08 11:45:17;;;;;;;20.40;10.45;;;3.60;99.90;;;;;;5051125;28;20044;-67
2023/03/08 11:47:58;;;;;;;18.55;10.18;;;3.60;99.90;;;;;;5039906;28;20091;-66
2023/03/08 11:50:34;;;;;;;17.45;10.75;;;3.70;99.90;;;;;;5042278;28;20423;-67
2023/03/08 11:53:04;;;;;;;19.95;11.68;;;3.80;99.90;;;;;;5030711;28;20045;-66
2023/03/08 11:55:48;;;;;;;21.00;12.25;;;3.80;99.90;;;;;;5045963;28;20095;-67
2023/03/08 11:58:24;;;;;;;18.45;10.77;;;3.80;99.90;;;;;;5042363;28;20041;-67
2023/03/08 12:00:55;;;;;;;17.23;10.20;;;3.80;99.90;;;;;;5046684;28;20558;-67
2023/03/08 12:03:25;;;;;;;15.07;8.23;;;3.80;99.90;;;;;;5034146;28;20183;-66
2023/03/08 12:05:57;;;;;;;18.02;9.23;;;3.70;99.90;;;;;;5041274;28;20416;-67
2023/03/08 12:08:30;;;;;;;21.25;10.02;;;3.70;99.90;;;;;;5038134;28;20511;-67
2023/03/08 12:11:00;;;;;;;;;;;3.70;99.90;;;;;;5042442;28;20060;-66
2023/03/08 12:13:43;;;;;;;18.40;8.85;;;3.70;99.90;;;;;;5050195;28;20015;-66
2023/03/08 12:16:24;;;;;;;18.92;9.25;;;3.60;99.90;;;;;;5036850;28;20400;-66
2023/03/08 12:19:16;;;;;;;22.42;9.77;;;3.60;99.90;;;;;;5038649;28;20037;-67
2023/03/08 12:22:03;;;;;;;21.55;10.13;;;3.70;99.90;;;;;;5037199;28;20045;-66
2023/03/08 12:24:47;;;;;;;22.92;9.95;;;3.70;99.90;;;;;;5039999;28;20038;-66
2023/03/08 12:27:18;;;;;;;18.63;9.55;;;3.70;99.90;;;;;;5040639;28;20053;-67
2023/03/08 12:29:58;;;;;;;25.20;10.63;;;3.70;99.90;;;;;;5040409;28;20092;-67
2023/03/08 12:32:25;;;;;;;21.27;10.07;;;3.70;99.90;;;;;;5040674;28;20049;-66
2023/03/08 12:35:33;;;;;;;20.35;9.82;;;3.80;99.90;;;;;;5045989;28;20033;-66
2023/03/08 12:38:03;;;;;;;19.08;9.85;;;3.70;99.90;;;;;;5042158;28;20140;-66
2023/03/08 12:40:43;;;;;;;19.00;9.48;;;3.70;99.90;;;;;;5043827;28;20060;-66
2023/03/08 12:43:13;;;;;;;21.70;10.00;;;3.70;99.90;;;;;;5038243;28;20045;-66